This is the latest recevied weather packets stored in our database for station/object HS6PNA-1. If no packets are shown the sender has not sent any weather packets the latest 10 day(s).
| Time | Temp. | Humidity | Pressure | Rain* | Wind** | Luminosity | Snow |
|---|---|---|---|---|---|---|---|
| 1777655104 | 31.11° C | 68% | 1006 hPa | - | - | 0 W/m² | - |
| 1777654734 | 31.11° C | 67% | 1006 hPa | - | - | 0 W/m² | - |
| 1777653809 | 30.56° C | 68% | 1006 hPa | - | - | 0 W/m² | - |
| 1777652885 | 31.67° C | 65% | 1006 hPa | - | - | 0 W/m² | - |
| 1777651960 | 32.22° C | 63% | 1006 hPa | - | - | 0 W/m² | - |
| 1777651036 | 32.22° C | 65% | 1006 hPa | - | - | 0 W/m² | - |
| 1777650111 | 32.22° C | 66% | 1005 hPa | - | - | 0 W/m² | - |
| 1777649187 | 32.22° C | 65% | 1005 hPa | - | - | 0 W/m² | - |
| 1777648262 | 32.22° C | 65% | 1005 hPa | - | - | 0 W/m² | - |
| 1777647338 | 32.22° C | 64% | 1005 hPa | - | - | 0 W/m² | - |
| 1777646413 | 32.22° C | 63% | 1004 hPa | - | - | 0 W/m² | - |
| 1777645489 | 32.22° C | 63% | 1004 hPa | - | - | 0 W/m² | - |
| 1777644564 | 32.22° C | 65% | 1004 hPa | - | - | 0 W/m² | - |
| 1777643640 | 32.78° C | 64% | 1004 hPa | - | - | 0 W/m² | - |
| 1777642715 | 32.78° C | 64% | 1004 hPa | - | - | 0 W/m² | - |
| 1777641791 | 32.78° C | 63% | 1003 hPa | - | - | 0 W/m² | - |
| 1777640866 | 32.78° C | 61% | 1003 hPa | - | - | 0 W/m² | - |
| 1777639942 | 32.78° C | 62% | 1003 hPa | - | - | 0 W/m² | - |
| 1777639017 | 32.78° C | 63% | 1002 hPa | - | - | 0 W/m² | - |
| 1777638093 | 33.33° C | 63% | 1002 hPa | - | - | 0 W/m² | - |
| 1777637168 | 33.33° C | 62% | 1002 hPa | - | - | 0 W/m² | - |
| 1777636244 | 32.78° C | 62% | 1002 hPa | - | - | 0 W/m² | - |
| 1777635319 | 33.33° C | 62% | 1002 hPa | - | - | 0 W/m² | - |
| 1777634395 | 33.33° C | 61% | 1002 hPa | - | - | 4 W/m² | - |
| 1777633470 | 33.89° C | 60% | 1002 hPa | - | - | 12 W/m² | - |
* Rain since midnight (hover to see other rain measurements)
** Current wind speed in m/s (hover to see current wind gust speed)